Time;durP1;ratioP1;P1;durP2;ratioP2;P2;SDS_P1;SDS_P2;PMS_P1;PMS_P2;Temp;Humidity;BMP_temperature;BMP_pressure;BME280_temperature;BME280_humidity;BME280_pressure;Samples;Min_cycle;Max_cycle;Signal;HPM_P1;HPM_P2
2023/07/12 00:02:08;;;;;;;40.25;25.60;;;;;;;28.18;100.00;97588.66;4817118;29;20081;-65
2023/07/12 00:04:38;;;;;;;38.65;26.50;;;;;;;28.17;100.00;97587.03;4816837;29;20632;-66
2023/07/12 00:07:13;;;;;;;36.15;24.70;;;;;;;28.16;100.00;97588.16;4805530;29;20086;-65
2023/07/12 00:09:42;;;;;;;38.25;26.67;;;;;;;28.16;100.00;97590.09;4822985;29;20492;-65
2023/07/12 00:12:11;;;;;;;36.70;25.10;;;;;;;28.16;100.00;97595.53;4827756;29;20668;-65
2023/07/12 00:14:41;;;;;;;38.30;27.00;;;;;;;28.16;100.00;97593.63;4825664;29;20046;-65
2023/07/12 00:17:10;;;;;;;38.35;26.30;;;;;;;28.14;100.00;97587.72;4800989;29;20046;-66
2023/07/12 00:19:40;;;;;;;37.55;25.73;;;;;;;28.14;100.00;97587.72;4830277;29;20062;-65
2023/07/12 00:22:10;;;;;;;38.35;26.27;;;;;;;28.14;100.00;97587.72;4799669;29;21806;-65
2023/07/12 00:24:40;;;;;;;36.15;24.58;;;;;;;28.16;100.00;97590.91;4815220;29;20081;-65
2023/07/12 00:27:09;;;;;;;33.17;24.20;;;;;;;28.16;100.00;97590.91;4830798;29;20066;-64
2023/07/12 00:29:39;;;;;;;37.10;26.20;;;;;;;28.16;100.00;97593.63;4799676;29;20050;-66
2023/07/12 00:32:09;;;;;;;34.38;24.70;;;;;;;28.16;100.00;97588.16;4827804;29;20097;-65
2023/07/12 00:34:39;;;;;;;39.45;26.83;;;;;;;28.20;100.00;97583.66;4828022;29;20614;-64
2023/07/12 00:37:14;;;;;;;40.15;27.15;;;;;;;28.25;100.00;97598.97;4814492;29;20161;-64
2023/07/12 00:39:44;;;;;;;36.95;26.85;;;;;;;28.26;100.00;97587.78;4815794;29;20050;-64
2023/07/12 00:42:23;;;;;;;38.05;25.65;;;;;;;28.28;100.00;97585.50;4829409;29;20114;-65
2023/07/12 00:44:57;;;;;;;34.70;24.30;;;;;;;28.30;100.00;97585.97;4815808;29;20390;-67
2023/07/12 00:47:29;;;;;;;37.20;23.75;;;;;;;28.32;100.00;97589.16;4829766;29;20115;-66
2023/07/12 00:50:01;;;;;;;25.98;20.02;;;;;;;28.35;100.00;97588.47;4828994;29;20057;-66
2023/07/12 00:52:32;;;;;;;29.55;21.83;;;;;;;28.37;100.00;97588.94;4829251;29;20058;-64
2023/07/12 00:55:03;;;;;;;31.70;22.77;;;;;;;28.42;100.00;97586.00;4794426;29;20069;-64
2023/07/12 00:57:33;;;;;;;30.23;21.60;;;;;;;28.48;100.00;97592.03;4842911;29;20090;-64
2023/07/12 01:00:12;;;;;;;32.58;21.00;;;;;;;28.52;100.00;97601.94;4829661;29;20763;-65
2023/07/12 01:02:46;;;;;;;29.23;20.63;;;;;;;28.58;100.00;97600.59;4837906;29;20070;-63
2023/07/12 01:05:16;;;;;;;31.27;22.65;;;;;;;28.63;100.00;97617.88;4838783;29;20082;-64
2023/07/12 01:07:46;;;;;;;30.45;22.45;;;;;;;28.71;100.00;97609.63;4827480;29;20077;-63
2023/07/12 01:10:16;;;;;;;30.05;21.83;;;;;;;28.74;100.00;97610.88;4823599;29;20058;-64
2023/07/12 01:12:46;;;;;;;29.98;21.65;;;;;;;28.79;100.00;97613.38;4826819;29;20144;-63
2023/07/12 01:15:15;;;;;;;25.02;20.80;;;;;;;28.88;100.00;97611.38;4825441;29;20137;-64
2023/07/12 01:17:45;;;;;;;30.10;20.50;;;;;;;28.92;100.00;97623.19;4827791;29;20141;-63
2023/07/12 01:20:16;;;;;;;31.23;21.15;;;;;;;28.97;100.00;97612.06;4808995;29;20550;-64
2023/07/12 01:22:46;;;;;;;25.70;20.92;;;;;;;29.05;100.00;97613.09;4836755;29;20064;-64
2023/07/12 01:25:15;;;;;;;24.17;19.63;;;;;;;29.08;100.00;97615.91;4822993;29;20383;-64
2023/07/12 01:27:44;;;;;;;25.42;20.05;;;;;;;29.13;100.00;97612.19;4841078;29;20069;-64
2023/07/12 01:30:19;;;;;;;22.50;18.63;;;;;;;29.24;100.00;97624.25;4823934;29;20836;-65
2023/07/12 01:32:51;;;;;;;24.60;18.77;;;;;;;29.29;100.00;97627.59;4819150;29;20057;-63
2023/07/12 01:35:21;;;;;;;21.80;17.58;;;;;;;29.37;100.00;97629.41;4823685;29;20066;-64
2023/07/12 01:37:53;;;;;;;22.55;17.67;;;;;;;29.50;100.00;97626.66;4804029;29;20399;-64
2023/07/12 01:40:23;;;;;;;25.98;17.92;;;;;;;29.61;100.00;97630.53;4824080;29;20065;-64
2023/07/12 01:42:52;;;;;;;21.13;17.52;;;;;;;29.74;100.00;97632.13;4822382;29;20050;-64
2023/07/12 01:45:22;;;;;;;21.60;16.90;;;;;;;30.02;100.00;97635.72;4839308;29;20114;-64
2023/07/12 01:47:51;;;;;;;22.92;16.52;;;;;;;30.24;100.00;97629.72;4814118;29;20141;-63
2023/07/12 01:50:20;;;;;;;19.77;15.27;;;;;;;30.61;100.00;97632.34;4825244;29;20049;-64
2023/07/12 01:52:50;;;;;;;20.70;15.15;;;;;;;30.90;100.00;97628.41;4822214;29;20538;-64
2023/07/12 01:55:20;;;;;;;18.83;15.90;;;;;;;31.10;97.70;97627.44;4837233;29;20517;-64
2023/07/12 01:57:49;;;;;;;21.52;15.20;;;;;;;31.31;95.76;97629.88;4820065;29;20046;-64
2023/07/12 02:00:19;;;;;;;21.60;13.30;;;;;;;31.58;95.24;97623.53;4806823;29;20058;-65
2023/07/12 02:02:48;;;;;;;20.15;13.98;;;;;;;31.86;92.58;97632.41;4821001;29;20145;-64
2023/07/12 02:05:21;;;;;;;17.20;13.48;;;;;;;32.14;90.42;97632.22;4840931;29;20057;-64
2023/07/12 02:07:52;;;;;;;17.15;13.63;;;;;;;32.33;89.86;97637.72;4825547;29;20134;-64
2023/07/12 02:10:26;;;;;;;17.15;13.20;;;;;;;32.19;88.80;97636.63;4839152;29;20053;-65
2023/07/12 02:12:55;;;;;;;18.33;14.50;;;;;;;32.15;87.02;97641.25;4811008;29;20054;-64
2023/07/12 02:15:27;;;;;;;16.65;13.25;;;;;;;32.50;85.92;97645.50;4808468;29;20672;-64
2023/07/12 02:17:58;;;;;;;16.33;12.68;;;;;;;32.88;84.27;97641.94;4825062;29;20090;-65
2023/07/12 02:20:29;;;;;;;13.70;11.75;;;;;;;32.96;82.74;97640.94;4805839;29;20139;-65
2023/07/12 02:23:02;;;;;;;19.10;11.90;;;;;;;33.16;80.34;97644.44;4835022;29;20065;-65
2023/07/12 02:25:35;;;;;;;13.27;10.38;;;;;;;33.64;80.60;97653.06;4841984;29;20049;-65
2023/07/12 02:28:05;;;;;;;17.40;11.38;;;;;;;33.86;77.96;97643.22;4816474;29;20053;-65
2023/07/12 02:30:34;;;;;;;14.15;11.43;;;;;;;33.90;76.80;97649.56;4840306;29;20073;-65
2023/07/12 02:33:04;;;;;;;15.38;11.18;;;;;;;34.17;77.29;97648.38;4824431;29;20782;-66
2023/07/12 02:35:34;;;;;;;15.52;10.48;;;;;;;34.17;77.02;97651.13;4809180;29;20479;-66
2023/07/12 02:38:03;;;;;;;16.52;9.60;;;;;;;34.27;75.22;97653.22;4840558;29;20089;-65
2023/07/12 02:40:33;;;;;;;12.20;9.93;;;;;;;34.31;74.72;97653.25;4838465;29;20150;-65
2023/07/12 02:43:02;;;;;;;12.48;11.18;;;;;;;34.42;73.19;97657.75;4823965;29;20168;-65
2023/07/12 02:45:31;;;;;;;16.13;10.20;;;;;;;34.71;73.43;97656.94;4823846;29;20060;-65
2023/07/12 02:48:01;;;;;;;12.65;9.38;;;;;;;34.70;71.81;97654.56;4808868;29;20058;-65
2023/07/12 02:50:30;;;;;;;17.50;10.75;;;;;;;34.65;73.64;97660.38;4839215;29;20046;-65
2023/07/12 02:53:00;;;;;;;14.05;10.35;;;;;;;34.77;71.44;97659.34;4841291;29;20065;-65
2023/07/12 02:55:29;;;;;;;15.40;10.20;;;;;;;34.69;73.79;97656.53;4824497;29;20061;-65
2023/07/12 02:57:58;;;;;;;13.02;9.82;;;;;;;34.88;71.19;97651.97;4807198;29;20042;-65
2023/07/12 03:00:28;;;;;;;12.38;10.18;;;;;;;34.83;71.13;97653.13;4822410;29;20069;-65
2023/07/12 03:02:58;;;;;;;13.55;10.25;;;;;;;34.91;72.76;97654.00;4821868;29;20154;-66
2023/07/12 03:05:28;;;;;;;13.27;9.35;;;;;;;35.10;70.26;97660.09;4819680;29;20046;-65
2023/07/12 03:07:59;;;;;;;12.98;10.00;;;;;;;35.01;71.86;97667.06;4824249;29;20070;-65
2023/07/12 03:10:30;;;;;;;12.55;10.52;;;;;;;34.73;72.46;97664.81;4826436;29;20128;-65
2023/07/12 03:13:00;;;;;;;17.70;11.23;;;;;;;35.01;71.93;97664.31;4836906;29;20058;-66
2023/07/12 03:15:29;;;;;;;23.50;12.40;;;;;;;35.01;71.79;97659.59;4833803;29;20103;-65
2023/07/12 03:17:59;;;;;;;24.08;13.65;;;;;;;34.61;71.77;97665.81;4825004;29;20115;-65
2023/07/12 03:20:28;;;;;;;18.13;12.73;;;;;;;34.51;73.44;97663.75;4809581;29;20058;-65
2023/07/12 03:22:58;;;;;;;16.85;11.88;;;;;;;34.53;75.00;97653.16;4822115;29;20084;-65
2023/07/12 03:25:27;;;;;;;17.70;13.20;;;;;;;34.03;72.58;97657.22;4831486;29;20057;-65
2023/07/12 03:27:57;;;;;;;45.20;14.95;;;;;;;34.20;73.89;97656.69;4823147;29;20618;-65
2023/07/12 03:30:26;;;;;;;17.50;13.18;;;;;;;33.95;72.21;97655.50;4810014;29;20070;-65
2023/07/12 03:32:56;;;;;;;19.38;12.45;;;;;;;33.90;72.20;97657.81;4822958;29;20053;-66
2023/07/12 03:35:27;;;;;;;14.68;12.20;;;;;;;34.05;74.48;97656.81;4823152;29;20705;-65
2023/07/12 03:37:57;;;;;;;19.80;13.38;;;;;;;33.94;72.61;97655.91;4823910;29;20085;-65
2023/07/12 03:40:26;;;;;;;17.05;12.82;;;;;;;33.89;73.38;97654.25;4835697;29;20050;-65
2023/07/12 03:42:56;;;;;;;19.50;13.15;;;;;;;34.07;72.95;97654.50;4824276;29;20050;-65
2023/07/12 03:45:26;;;;;;;14.02;12.07;;;;;;;34.34;73.00;97656.09;4805375;29;20133;-65
2023/07/12 03:47:55;;;;;;;14.38;11.20;;;;;;;34.30;71.08;97657.19;4825690;29;20045;-66
2023/07/12 03:50:24;;;;;;;15.90;11.48;;;;;;;34.24;70.58;97653.97;4838523;29;20061;-66
2023/07/12 03:52:54;;;;;;;14.30;9.85;;;;;;;34.12;70.20;97654.19;4822605;29;20049;-66
2023/07/12 03:55:23;;;;;;;15.43;10.98;;;;;;;34.28;69.96;97661.13;4824564;29;20046;-66
2023/07/12 03:57:52;;;;;;;14.40;11.13;;;;;;;34.23;71.28;97655.94;4839096;29;20042;-66
2023/07/12 04:00:22;;;;;;;13.82;10.32;;;;;;;34.44;69.26;97638.09;4820918;29;20054;-66
2023/07/12 04:02:52;;;;;;;14.73;10.52;;;;;;;34.67;68.75;97647.84;4825475;29;20122;-66
2023/07/12 04:05:21;;;;;;;13.18;9.98;;;;;;;35.14;70.69;97647.13;4822466;29;20053;-66
2023/07/12 04:07:52;;;;;;;14.13;9.55;;;;;;;35.36;65.32;97648.13;4828938;29;20050;-66
2023/07/12 04:10:22;;;;;;;16.15;10.57;;;;;;;34.91;64.65;97651.25;4829491;29;20272;-66
2023/07/12 04:12:52;;;;;;;16.17;10.40;;;;;;;35.39;68.61;97638.34;4798044;29;20064;-66
2023/07/12 04:15:21;;;;;;;12.98;11.10;;;;;;;35.67;67.03;97644.09;4831469;29;25312;-66
2023/07/12 04:17:51;;;;;;;16.17;11.00;;;;;;;35.20;69.60;97641.31;4843549;29;20057;-66
2023/07/12 04:20:20;;;;;;;15.25;12.02;;;;;;;35.27;64.73;97649.66;4841467;29;20046;-67
2023/07/12 04:22:52;;;;;;;14.02;10.18;;;;;;;35.37;65.53;97641.47;4837574;29;20161;-66
2023/07/12 04:25:22;;;;;;;14.05;10.05;;;;;;;35.38;63.53;97645.81;4824413;29;20070;-66
2023/07/12 04:27:51;;;;;;;11.40;9.02;;;;;;;35.59;63.27;97654.22;4826944;29;20081;-66
2023/07/12 04:30:21;;;;;;;12.05;8.50;;;;;;;36.16;63.16;97649.13;4824519;29;20046;-65
2023/07/12 04:32:52;;;;;;;12.63;9.15;;;;;;;36.24;66.53;97653.53;4844717;29;20121;-65
2023/07/12 04:35:21;;;;;;;14.60;10.50;;;;;;;36.19;62.14;97650.34;4838273;29;20054;-65
2023/07/12 04:37:51;;;;;;;13.07;9.57;;;;;;;35.95;61.77;97660.00;4810986;29;20155;-65
2023/07/12 04:40:21;;;;;;;12.73;10.02;;;;;;;35.78;64.47;97649.66;4825148;29;20157;-66
2023/07/12 04:42:50;;;;;;;13.13;10.85;;;;;;;36.15;63.76;97650.31;4801410;29;20058;-65
2023/07/12 04:45:20;;;;;;;11.85;10.00;;;;;;;35.78;64.65;97649.66;4819239;29;20058;-65
2023/07/12 04:47:49;;;;;;;17.60;11.68;;;;;;;35.66;64.27;97650.78;4820445;29;20086;-66
2023/07/12 04:50:18;;;;;;;27.75;11.40;;;;;;;36.12;63.25;97640.06;4837476;29;20078;-65
2023/07/12 04:52:48;;;;;;;13.50;9.68;;;;;;;36.10;64.51;97649.88;4805296;29;20058;-66
2023/07/12 04:55:24;;;;;;;26.90;9.43;;;;;;;36.29;63.87;97650.38;4806366;29;20059;-66
2023/07/12 04:57:55;;;;;;;14.40;10.25;;;;;;;35.54;62.31;97648.28;4804068;29;20127;-66
2023/07/12 05:00:25;;;;;;;9.40;6.97;;;;;;;35.97;61.76;97646.66;4803261;29;20055;-65
2023/07/12 05:02:55;;;;;;;10.48;7.90;;;;;;;36.44;62.30;97645.72;4802485;29;20088;-65
2023/07/12 05:05:25;;;;;;;12.15;8.55;;;;;;;36.40;62.08;97647.66;4805295;29;20055;-65
2023/07/12 05:07:55;;;;;;;14.73;9.20;;;;;;;36.25;62.27;97643.28;4803730;29;20047;-66
2023/07/12 05:10:24;;;;;;;11.57;8.48;;;;;;;36.36;63.91;97642.16;4809742;29;20065;-66
2023/07/12 05:12:54;;;;;;;13.13;8.02;;;;;;;36.59;64.79;97649.31;4831752;29;20050;-65
2023/07/12 05:15:23;;;;;;;15.20;7.70;;;;;;;36.10;63.15;97647.09;4789320;29;20058;-66
2023/07/12 05:17:53;;;;;;;11.90;7.85;;;;;;;36.16;63.23;97648.38;4807289;29;20079;-65
2023/07/12 05:20:22;;;;;;;10.77;7.53;;;;;;;36.13;62.66;97640.84;4810742;29;20046;-65
2023/07/12 05:22:52;;;;;;;9.63;7.25;;;;;;;35.60;63.09;97642.03;4836510;29;20107;-65
2023/07/12 05:25:21;;;;;;;8.82;7.13;;;;;;;35.78;64.83;97655.19;4809408;29;20779;-66
2023/07/12 05:27:51;;;;;;;12.05;8.07;;;;;;;36.01;62.13;97641.94;4808163;29;20070;-65
2023/07/12 05:30:20;;;;;;;11.60;7.22;;;;;;;36.12;64.81;97648.31;4811023;29;20054;-65
2023/07/12 05:32:50;;;;;;;8.18;6.60;;;;;;;36.25;62.21;97643.28;4807430;29;20057;-65
2023/07/12 05:35:20;;;;;;;10.93;6.35;;;;;;;36.05;64.31;97637.25;4835772;29;20043;-64
2023/07/12 05:37:50;;;;;;;8.05;5.15;;;;;;;36.20;63.87;97641.69;4809074;29;20054;-66
2023/07/12 05:40:20;;;;;;;8.80;5.63;;;;;;;36.17;59.77;97644.41;4796238;29;20107;-68
2023/07/12 05:42:50;;;;;;;7.38;5.40;;;;;;;36.33;60.59;97633.88;4820663;29;20461;-68
2023/07/12 05:45:20;;;;;;;6.43;5.40;;;;;;;36.00;60.21;97634.84;4832321;29;20058;-67
2023/07/12 05:47:50;;;;;;;6.05;5.00;;;;;;;36.23;60.98;97640.13;4839838;29;20046;-67
2023/07/12 05:50:21;;;;;;;6.85;4.90;;;;;;;36.30;61.09;97634.63;4823104;29;20438;-68
2023/07/12 05:52:51;;;;;;;8.15;5.50;;;;;;;36.35;59.65;97626.75;4822621;29;20119;-67
2023/07/12 05:55:20;;;;;;;9.55;5.30;;;;;;;36.21;62.71;97626.69;4819377;29;20369;-67
2023/07/12 05:57:50;;;;;;;14.20;6.88;;;;;;;36.36;60.90;97625.59;4819296;29;20057;-68
2023/07/12 06:00:20;;;;;;;8.27;5.95;;;;;;;36.52;62.96;97616.16;4819584;29;20123;-67
2023/07/12 06:02:49;;;;;;;6.63;5.55;;;;;;;36.18;61.58;97613.69;4823309;29;20130;-68
2023/07/12 06:05:19;;;;;;;8.13;5.80;;;;;;;35.72;62.51;97620.88;4794993;29;20440;-67
2023/07/12 06:07:50;;;;;;;7.25;5.88;;;;;;;35.70;64.94;97618.53;4810650;29;20718;-67
2023/07/12 06:10:20;;;;;;;11.95;6.40;;;;;;;35.82;62.44;97620.97;4808702;29;20076;-68
2023/07/12 06:12:50;;;;;;;17.27;6.35;;;;;;;35.81;63.48;97613.06;4807987;29;20045;-68
2023/07/12 06:15:19;;;;;;;7.43;6.15;;;;;;;35.78;63.72;97600.84;4820807;29;20046;-67
2023/07/12 06:17:48;;;;;;;8.65;5.72;;;;;;;35.59;64.43;97612.13;4821048;29;20137;-67
2023/07/12 06:20:18;;;;;;;9.45;6.15;;;;;;;35.27;64.59;97605.59;4812887;29;20542;-67
2023/07/12 06:22:48;;;;;;;8.07;6.65;;;;;;;35.40;67.52;97604.91;4815670;29;20835;-65
2023/07/12 06:25:17;;;;;;;7.22;5.63;;;;;;;35.34;65.40;97606.44;4833437;29;20058;-68
2023/07/12 06:27:47;;;;;;;8.95;6.20;;;;;;;35.60;64.77;97599.94;4814136;29;20069;-64
2023/07/12 06:30:18;;;;;;;8.35;5.93;;;;;;;35.19;66.67;97596.47;4821915;29;20050;-65
2023/07/12 06:32:48;;;;;;;7.85;6.03;;;;;;;35.27;65.89;97602.84;4828174;29;20126;-65
2023/07/12 06:35:18;;;;;;;13.15;6.35;;;;;;;34.66;66.70;97594.00;4815355;29;20058;-66
2023/07/12 06:37:47;;;;;;;9.07;6.05;;;;;;;34.75;68.46;97596.44;4816238;29;20595;-62
2023/07/12 06:40:20;;;;;;;9.95;5.95;;;;;;;34.65;68.39;97592.38;4798093;29;20081;-66
2023/07/12 06:42:50;;;;;;;15.82;6.15;;;;;;;34.91;70.60;97594.25;4811776;29;20058;-67
2023/07/12 06:45:20;;;;;;;8.82;5.78;;;;;;;34.98;68.02;97596.25;4827522;29;20077;-67
2023/07/12 06:47:50;;;;;;;11.48;6.75;;;;;;;34.95;67.45;97586.81;4813253;29;20054;-67
2023/07/12 06:50:20;;;;;;;8.93;5.97;;;;;;;34.82;70.46;97580.00;4817131;29;20073;-66
2023/07/12 06:52:49;;;;;;;10.95;5.88;;;;;;;34.78;70.03;97581.16;4813637;29;20054;-66
2023/07/12 06:55:19;;;;;;;13.07;6.03;;;;;;;34.69;68.23;97571.25;4815288;29;20153;-66
2023/07/12 06:57:49;;;;;;;7.82;6.18;;;;;;;34.72;69.07;97575.97;4822091;29;20046;-67
2023/07/12 07:00:19;;;;;;;7.50;6.13;;;;;;;35.00;70.29;97580.97;4815109;29;20101;-67
2023/07/12 07:02:50;;;;;;;8.57;5.68;;;;;;;35.33;68.28;97562.75;4799902;29;20038;-66
2023/07/12 07:05:20;;;;;;;6.55;5.53;;;;;;;35.46;67.46;97553.78;4797775;29;20138;-64
2023/07/12 07:07:50;;;;;;;7.15;5.82;;;;;;;35.40;65.40;97569.13;4817323;29;20138;-66
2023/07/12 07:10:19;;;;;;;9.93;6.43;;;;;;;35.09;69.68;97573.19;4816935;29;20069;-65
2023/07/12 07:12:49;;;;;;;6.20;5.60;;;;;;;34.82;69.29;97562.72;4814910;29;20130;-67
2023/07/12 07:15:18;;;;;;;6.38;5.78;;;;;;;34.51;68.99;97559.25;4812995;29;21811;-66
2023/07/12 07:17:48;;;;;;;6.45;5.75;;;;;;;34.27;71.40;97557.00;4794197;29;20058;-66
2023/07/12 07:20:18;;;;;;;6.97;5.68;;;;;;;34.13;70.74;97560.34;4811532;29;20046;-67
2023/07/12 07:22:51;;;;;;;7.45;6.32;;;;;;;34.04;71.44;97556.28;4812085;29;20057;-67
2023/07/12 07:25:21;;;;;;;7.97;6.82;;;;;;;33.93;74.03;97552.63;4809289;29;20061;-65
2023/07/12 07:27:51;;;;;;;7.18;6.28;;;;;;;33.88;76.95;97552.97;4812090;29;20050;-65
2023/07/12 07:30:21;;;;;;;9.27;6.93;;;;;;;33.82;75.43;97547.78;4823929;29;20050;-65
2023/07/12 07:32:53;;;;;;;15.75;7.22;;;;;;;33.61;78.94;97550.22;4801948;29;20058;-64
2023/07/12 07:35:25;;;;;;;7.13;6.32;;;;;;;33.61;72.97;97541.19;4795083;29;20050;-65
2023/07/12 07:37:55;;;;;;;9.73;7.18;;;;;;;33.70;74.21;97547.22;4811054;29;20050;-65
2023/07/12 07:40:24;;;;;;;8.50;6.50;;;;;;;33.87;73.95;97540.38;4831804;29;20119;-65
2023/07/12 07:42:55;;;;;;;8.18;6.40;;;;;;;33.96;74.23;97532.66;4816246;29;20058;-65
2023/07/12 07:45:25;;;;;;;11.20;7.00;;;;;;;33.95;75.22;97525.56;4815248;29;20086;-66
2023/07/12 07:47:56;;;;;;;8.88;7.10;;;;;;;34.04;74.04;97518.63;4781429;29;20358;-65
2023/07/12 07:50:26;;;;;;;7.10;6.40;;;;;;;34.36;70.80;97523.72;4814599;29;20046;-67
2023/07/12 07:52:56;;;;;;;9.70;6.65;;;;;;;34.68;71.01;97520.16;4815016;29;20548;-65
2023/07/12 07:55:27;;;;;;;7.95;6.18;;;;;;;34.93;71.30;97514.84;4814511;29;20058;-67
2023/07/12 07:57:56;;;;;;;7.93;6.60;;;;;;;34.84;67.68;97524.59;4829442;29;20054;-67
2023/07/12 08:00:26;;;;;;;11.70;6.50;;;;;;;34.84;67.27;97517.13;4812487;29;20058;-67
2023/07/12 08:02:56;;;;;;;6.88;6.22;;;;;;;35.05;67.93;97506.28;4800154;29;20114;-67
2023/07/12 08:05:26;;;;;;;10.18;7.07;;;;;;;34.89;67.89;97502.22;4814269;29;20115;-68
2023/07/12 08:07:58;;;;;;;8.68;7.50;;;;;;;34.77;67.05;97497.81;4801137;29;20059;-67
2023/07/12 08:10:32;;;;;;;8.50;6.68;;;;;;;34.82;69.85;97491.97;4815188;29;20137;-68
2023/07/12 08:13:03;;;;;;;7.50;6.72;;;;;;;35.02;68.35;97486.97;4808400;29;20147;-68
2023/07/12 08:15:34;;;;;;;7.55;6.60;;;;;;;35.23;68.44;97489.13;4815939;29;20508;-69
2023/07/12 08:18:04;;;;;;;9.50;7.65;;;;;;;35.16;66.76;97484.38;4815069;29;20162;-69
2023/07/12 08:20:34;;;;;;;10.77;8.07;;;;;;;35.07;68.39;97486.63;4818452;29;20050;-68
2023/07/12 08:23:04;;;;;;;8.38;7.55;;;;;;;35.17;67.93;97491.47;4815519;29;20168;-68
2023/07/12 08:25:34;;;;;;;10.45;7.35;;;;;;;35.53;67.86;97490.50;4817280;29;20442;-68
2023/07/12 08:28:04;;;;;;;8.70;7.63;;;;;;;35.54;67.91;97494.81;4811066;29;20074;-67
2023/07/12 08:30:33;;;;;;;8.93;8.02;;;;;;;35.39;66.72;97490.41;4827852;29;20058;-68
2023/07/12 08:33:03;;;;;;;8.82;7.93;;;;;;;35.37;66.55;97487.25;4813358;29;20057;-68
2023/07/12 08:35:33;;;;;;;13.13;7.43;;;;;;;35.20;67.60;97479.66;4798993;29;20054;-68
2023/07/12 08:38:18;;;;;;;11.20;7.63;;;;;;;34.93;67.88;97481.81;4795377;29;20046;-68
2023/07/12 08:40:51;;;;;;;10.75;8.50;;;;;;;35.01;67.39;97477.94;4815236;29;20442;-68
2023/07/12 08:43:29;;;;;;;10.18;8.13;;;;;;;35.21;69.39;97480.47;4814472;29;20290;-68
2023/07/12 08:46:09;;;;;;;12.77;8.50;;;;;;;35.25;66.78;97476.56;4797279;29;20054;-68
2023/07/12 08:48:38;;;;;;;9.07;7.90;;;;;;;35.27;67.56;97473.44;4830108;29;20121;-69
2023/07/12 08:51:33;;;;;;;9.05;7.45;;;;;;;35.37;69.00;97462.47;4828144;29;20062;-69
2023/07/12 08:54:04;;;;;;;8.50;7.05;;;;;;;35.47;70.32;97455.44;4809113;29;20400;-68
2023/07/12 08:56:33;;;;;;;9.55;7.32;;;;;;;35.47;68.75;97463.69;4815932;29;20378;-68
2023/07/12 08:59:11;;;;;;;10.60;7.97;;;;;;;35.33;66.67;97456.16;4812740;29;20581;-68
2023/07/12 09:01:53;;;;;;;24.70;8.55;;;;;;;35.25;67.72;97464.75;4814904;29;20058;-68
2023/07/12 09:04:30;;;;;;;13.23;10.30;;;;;;;35.20;67.06;97457.63;4813251;29;20062;-68
2023/07/12 09:07:07;;;;;;;13.05;10.55;;;;;;;35.23;66.73;97450.59;4810075;29;20065;-68
2023/07/12 09:09:39;;;;;;;11.25;10.23;;;;;;;35.31;68.16;97450.25;4813833;29;20102;-72
2023/07/12 09:12:28;;;;;;;16.45;11.57;;;;;;;35.32;67.85;97451.81;4784043;29;20062;-68
2023/07/12 09:15:04;;;;;;;13.50;10.15;;;;;;;35.23;68.36;97459.63;4816463;29;20543;-69
2023/07/12 09:17:42;;;;;;;17.10;10.07;;;;;;;34.86;67.02;97459.75;4814382;29;20050;-70
2023/07/12 09:20:28;;;;;;;10.93;9.38;;;;;;;34.63;67.62;97446.19;4812483;29;20062;-68
2023/07/12 09:23:00;;;;;;;14.70;9.38;;;;;;;34.57;68.78;97442.19;4805697;29;20050;-68
2023/07/12 09:25:38;;;;;;;19.90;9.73;;;;;;;34.61;71.52;97439.50;4824606;29;20142;-68
2023/07/12 09:28:12;;;;;;;21.95;10.38;;;;;;;34.60;73.13;97437.91;4833763;29;20057;-67
2023/07/12 09:30:42;;;;;;;16.45;11.15;;;;;;;34.68;72.78;97432.09;4836575;29;20058;-68
2023/07/12 09:33:24;;;;;;;20.30;11.95;;;;;;;34.67;70.81;97427.78;4823310;29;20165;-68
2023/07/12 09:35:56;;;;;;;11.13;9.77;;;;;;;34.70;71.23;97429.75;4838666;29;20050;-68
2023/07/12 09:38:26;;;;;;;12.38;9.30;;;;;;;34.72;72.35;97432.13;4824848;29;20057;-68
2023/07/12 09:40:57;;;;;;;14.82;8.63;;;;;;;34.63;71.42;97423.38;4822642;29;20550;-68
2023/07/12 09:43:28;;;;;;;10.85;8.40;;;;;;;34.63;69.81;97415.94;4825707;29;20667;-68
2023/07/12 09:46:24;;;;;;;11.65;8.45;;;;;;;34.69;70.95;97408.94;4816412;29;20050;-68
2023/07/12 09:49:04;;;;;;;8.93;8.10;;;;;;;34.76;72.00;97410.13;4813031;29;20045;-68
2023/07/12 09:51:55;;;;;;;8.80;7.35;;;;;;;34.56;70.55;97404.88;4824020;29;20101;-69
2023/07/12 09:54:46;;;;;;;11.20;7.30;;;;;;;34.59;71.60;97406.84;4805058;29;20114;-68
2023/07/12 09:57:21;;;;;;;9.77;8.73;;;;;;;34.49;70.39;97396.56;4808579;29;20560;-68
2023/07/12 10:00:03;;;;;;;15.88;9.98;;;;;;;34.26;71.26;97398.72;4822398;29;20064;-68
2023/07/12 10:03:05;;;;;;;12.20;9.90;;;;;;;34.31;70.97;97398.38;4817110;29;20153;-67
2023/07/12 10:05:36;;;;;;;15.07;9.13;;;;;;;34.33;71.90;97398.78;4820199;29;20074;-67
2023/07/12 10:08:14;;;;;;;9.60;8.70;;;;;;;34.39;71.13;97385.50;4824206;29;20681;-66
2023/07/12 10:11:12;;;;;;;15.90;9.77;;;;;;;34.39;70.86;97382.75;4823408;29;20054;-68
2023/07/12 10:13:53;;;;;;;12.85;9.65;;;;;;;34.43;69.95;97384.34;4822464;29;20046;-67
2023/07/12 10:16:31;;;;;;;14.82;10.20;;;;;;;34.40;70.67;97379.59;4826569;29;20053;-67
2023/07/12 10:19:14;;;;;;;12.50;9.73;;;;;;;34.50;71.10;97375.34;4487753;29;10000643;-67
2023/07/12 10:21:45;;;;;;;11.00;9.88;;;;;;;34.63;71.00;97380.16;4822005;29;20050;-68
2023/07/12 10:24:17;;;;;;;12.70;10.38;;;;;;;34.75;71.62;97381.84;4827933;29;20144;-67
2023/07/12 10:26:48;;;;;;;;;;;;;;;34.75;68.37;97370.03;4806695;29;20486;-68
2023/07/12 10:29:47;;;;;;;12.55;9.55;;;;;;;34.75;68.42;97375.53;4835527;29;19996;-67
2023/07/12 10:32:25;;;;;;;14.18;9.82;;;;;;;34.81;68.66;97374.00;4818620;29;20050;-68
2023/07/12 10:35:16;;;;;;;13.50;10.32;;;;;;;34.86;67.75;97381.91;4812199;29;20141;-69
2023/07/12 10:37:59;;;;;;;13.13;10.63;;;;;;;34.88;67.64;97374.03;4820259;29;20058;-68
2023/07/12 10:40:37;;;;;;;20.00;10.55;;;;;;;34.83;68.11;97372.44;4828264;29;20054;-68
2023/07/12 10:43:27;;;;;;;10.85;9.75;;;;;;;34.76;68.11;97374.38;4829028;29;20073;-69
2023/07/12 10:46:18;;;;;;;16.25;10.60;;;;;;;34.66;68.70;97362.91;4834391;29;20735;-69
2023/07/12 10:48:51;;;;;;;12.13;10.07;;;;;;;34.57;68.84;97362.44;4822347;29;20056;-68
2023/07/12 10:51:27;;;;;;;13.77;10.55;;;;;;;34.54;69.30;97360.44;4837642;29;20058;-66
2023/07/12 10:53:58;;;;;;;11.15;9.43;;;;;;;34.56;69.69;97346.31;4826315;29;20660;-66
2023/07/12 10:56:50;;;;;;;14.52;10.23;;;;;;;34.56;69.13;97352.63;4836730;29;20060;-68
2023/07/12 10:59:31;;;;;;;14.00;10.13;;;;;;;34.58;69.61;97342.00;4836692;29;20050;-69
2023/07/12 11:02:04;;;;;;;12.95;9.80;;;;;;;34.64;70.13;97342.44;4484497;29;10000020;-66
2023/07/12 11:04:35;;;;;;;;;;;;;;;34.68;71.77;97332.28;4833904;29;20050;-68
2023/07/12 11:07:07;;;;;;;15.95;10.32;;;;;;;34.70;70.20;97336.22;4822116;29;20400;-68
2023/07/12 11:09:46;;;;;;;12.85;10.38;;;;;;;34.68;70.21;97330.31;4822589;29;20669;-68
2023/07/12 11:12:31;;;;;;;13.43;9.07;;;;;;;34.59;68.65;97326.31;4820764;29;20146;-68
2023/07/12 11:15:06;;;;;;;15.57;10.02;;;;;;;34.55;68.62;97331.00;4825325;29;20050;-68
2023/07/12 11:18:01;;;;;;;15.43;8.80;;;;;;;34.54;68.78;97321.16;4820308;29;20077;-68
2023/07/12 11:20:52;;;;;;;19.77;9.27;;;;;;;34.50;68.26;97323.88;4838654;29;20089;-67
2023/07/12 11:23:24;;;;;;;12.27;8.70;;;;;;;34.54;69.09;97324.69;4833902;29;20058;-68
2023/07/12 11:26:20;;;;;;;12.93;10.10;;;;;;;34.57;68.33;97321.16;4813261;29;20149;-68
2023/07/12 11:28:51;;;;;;;16.38;11.55;;;;;;;34.57;68.52;97312.13;4823130;29;20440;-69
2023/07/12 11:31:25;;;;;;;22.15;11.82;;;;;;;34.56;68.65;97303.13;4839230;29;20110;-71
2023/07/12 11:34:02;;;;;;;15.80;14.10;;;;;;;34.51;67.62;97305.44;4829063;29;20137;-70
2023/07/12 11:36:35;;;;;;;14.57;12.77;;;;;;;34.48;68.99;97304.22;4837807;29;20342;-69
2023/07/12 11:39:17;;;;;;;15.00;13.43;;;;;;;34.44;69.16;97300.66;4833576;29;20061;-68
2023/07/12 11:41:55;;;;;;;12.30;11.07;;;;;;;34.43;71.48;97301.84;4826135;29;20050;-70
2023/07/12 11:44:25;;;;;;;16.63;12.23;;;;;;;34.40;70.76;97297.09;4832056;29;20119;-68
2023/07/12 11:46:55;;;;;;;14.93;13.20;;;;;;;34.42;71.43;97300.28;4812956;29;20140;-68